Pan Freesia — V7SB5 — position and weather

sailwx.info

Track history (hours):
 
Tides and Currents Weather Stations Pressure Air Temp Water Temp Dewpoint Dewpoint Depression Visibility Wind Speed Wind Dir Waves Ship Positions

Pan Freesia

Last reported at 2017-Oct-23 16:28 UTC. Time now 2017-Nov-19 14:27 UTC.
Position N 48°31' W 126°14'.
Warning: this ship's position is 26 days out of date.

Length 292 m; draft 17.9 m.

Type: Cargo ship. MMSI: 538003616.

Date/timePositionNaut miles runAvg speedWind from/ knotsBaromVisibWave heightAir tempDewpointWater temp
2017-Oct-23 16:28N 48°31' W 126°14'5 9.8
2017-Oct-23 15:59N 48°31' W 126°07'4 9.1
2017-Oct-23 15:29N 48°31' W 126°00'4 8.9
2017-Oct-23 15:00N 48°31' W 125°54'6 8.7
2017-Oct-23 14:17N 48°30' W 125°44'3 8.6
2017-Oct-23 14:00N 48°30' W 125°41'5 8.8
2017-Oct-23 13:26N 48°30' W 125°33'4 8.8
2017-Oct-23 12:56N 48°30' W 125°26'5 8.5
2017-Oct-23 12:22N 48°31' W 125°19'3 8.1
2017-Oct-23 11:59N 48°31' W 125°14'5 8.0
2017-Oct-23 11:19N 48°30' W 125°06'4 7.4
2017-Oct-23 10:47N 48°30' W 125°00'2 7.6
2017-Oct-23 10:30N 48°31' W 124°57'4 7.9
2017-Oct-23 10:00N 48°30' W 124°51'4 8.2
2017-Oct-23 09:30N 48°30' W 124°45'4 7.9
2017-Oct-23 09:00N 48°29' W 124°39'5 9.3
2017-Oct-23 08:30N 48°28' W 124°33'510.7
2017-Oct-23 08:00N 48°25' W 124°25'611.9
2017-Oct-23 07:30N 48°23' W 124°17'612.2
2017-Oct-23 06:59N 48°21' W 124°09'813.1
2017-Oct-23 06:24N 48°18' W 123°58'613.3
2017-Oct-23 05:59N 48°17' W 123°50'713.3
2017-Oct-23 05:30N 48°16' W 123°40'612.3
2017-Oct-23 04:58N 48°16' W 123°30'612.4
2017-Oct-23 04:30N 48°21' W 123°26'510.1
2017-Oct-23 04:00N 48°23' W 123°19'612.0
2017-Oct-23 03:30N 48°27' W 123°13'714.5
2017-Oct-23 03:00N 48°35' W 123°14'713.5
2017-Oct-23 02:30N 48°41' W 123°15'713.2
2017-Oct-23 02:00N 48°45' W 123°07'611.0
2017-Oct-23 01:30N 48°49' W 123°01'613.1
2017-Oct-23 01:00N 48°55' W 123°05'611.5
2017-Oct-23 00:30N 49°00' W 123°09'1 0.9
2017-Oct-22 23:32N 49°01' W 123°09'0 0.0
2017-Oct-22 23:26N 49°01' W 123°09'0 0.0
2017-Oct-22 22:38N 49°01' W 123°09'0 0.0
2017-Oct-22 22:14N 49°01' W 123°09'0 0.0
2017-Oct-22 20:26N 49°01' W 123°09'0 0.0
2017-Oct-22 19:44N 49°01' W 123°09'0 0.0
2017-Oct-22 19:20N 49°01' W 123°09'0 0.0
2017-Oct-22 18:56N 49°01' W 123°09'0 0.0
2017-Oct-22 18:20N 49°01' W 123°09'0 0.0
2017-Oct-22 17:26N 49°01' W 123°09'0 0.0
2017-Oct-22 16:44N 49°01' W 123°09'0 0.0
2017-Oct-22 16:26N 49°01' W 123°09'0 0.0
2017-Oct-22 15:56N 49°01' W 123°09'0 0.0
2017-Oct-22 15:26N 49°01' W 123°09'0 0.0
2017-Oct-22 14:50N 49°01' W 123°09'0 0.0
2017-Oct-22 14:23N 49°01' W 123°09'0 0.0
2017-Oct-22 13:56N 49°01' W 123°09'0 0.0
2017-Oct-22 13:26N 49°01' W 123°09'0 0.0
2017-Oct-22 12:50N 49°01' W 123°09'0 0.0
2017-Oct-22 12:26N 49°01' W 123°09'0 0.0
2017-Oct-22 11:56N 49°01' W 123°09'0 0.0
2017-Oct-22 10:50N 49°01' W 123°09'0 0.0
2017-Oct-22 10:26N 49°01' W 123°09'0 0.0
2017-Oct-22 09:59N 49°01' W 123°09'0 0.0
2017-Oct-22 09:20N 49°01' W 123°09'0 0.0
2017-Oct-22 08:44N 49°01' W 123°09'0 0.0
2017-Oct-22 08:26N 49°01' W 123°09'0 0.0
2017-Oct-22 07:50N 49°01' W 123°09'0 0.0
2017-Oct-22 07:26N 49°01' W 123°09'0 0.0
2017-Oct-22 06:56N 49°01' W 123°09'0 0.0
2017-Oct-22 06:26N 49°01' W 123°09'0 0.0
2017-Oct-22 05:32N 49°01' W 123°09'0 0.0
2017-Oct-22 05:26N 49°01' W 123°09'0 0.0
2017-Oct-22 04:50N 49°01' W 123°09'0 0.0
2017-Oct-22 04:08N 49°01' W 123°09'0 0.0
2017-Oct-22 03:59N 49°01' W 123°09'0 0.0
2017-Oct-22 02:50N 49°01' W 123°09'0 0.0
2017-Oct-22 01:38N 49°01' W 123°09'0 0.0
2017-Oct-22 01:29N 49°01' W 123°09'0 0.0
2017-Oct-22 00:56N 49°01' W 123°09'0 0.0
2017-Oct-22 00:20N 49°01' W 123°09'0 0.0
2017-Oct-21 23:41N 49°01' W 123°09'0 0.0
2017-Oct-21 23:26N 49°01' W 123°09'0 0.0
2017-Oct-21 22:56N 49°01' W 123°09'0 0.0
2017-Oct-21 22:29N 49°01' W 123°09'0 0.0
2017-Oct-21 21:50N 49°01' W 123°09'0 0.0
2017-Oct-21 21:17N 49°01' W 123°09'0 0.0
2017-Oct-21 20:59N 49°01' W 123°09'0 0.0
2017-Oct-21 20:11N 49°01' W 123°09'0 0.0
2017-Oct-21 19:53N 49°01' W 123°09'0 0.0
2017-Oct-21 19:26N 49°01' W 123°09'0 0.0
2017-Oct-21 18:59N 49°01' W 123°09'0 0.0
2017-Oct-21 18:29N 49°01' W 123°09'0 0.0
2017-Oct-21 17:56N 49°01' W 123°09'0 0.0
2017-Oct-21 17:29N 49°01' W 123°09'0 0.0
2017-Oct-21 16:59N 49°01' W 123°09'0 0.0
2017-Oct-21 16:26N 49°01' W 123°09'0 0.0
2017-Oct-21 15:59N 49°01' W 123°09'0 0.0
2017-Oct-21 15:02N 49°01' W 123°09'0 0.0
2017-Oct-21 14:53N 49°01' W 123°09'0 0.0
2017-Oct-21 14:29N 49°01' W 123°09'0 0.0
2017-Oct-21 13:29N 49°01' W 123°09'0 0.0
2017-Oct-21 12:56N 49°01' W 123°09'0 0.0
2017-Oct-21 12:26N 49°01' W 123°09'0 0.0
2017-Oct-21 11:59N 49°01' W 123°09'0 0.0
2017-Oct-21 11:29N 49°01' W 123°09'0 0.0
2017-Oct-21 10:53N 49°01' W 123°09'0 0.0
2017-Oct-21 10:29N 49°01' W 123°09'0 0.0
2017-Oct-21 09:59N 49°01' W 123°09'0 0.0
2017-Oct-21 08:41N 49°01' W 123°09'0 0.0
2017-Oct-21 08:20N 49°01' W 123°09'0 0.0
2017-Oct-21 07:53N 49°01' W 123°09'0 0.0
2017-Oct-21 07:23N 49°01' W 123°09'0 0.0
2017-Oct-21 06:47N 49°01' W 123°09'0 0.0
2017-Oct-21 06:29N 49°01' W 123°09'0 0.0
2017-Oct-21 05:59N 49°01' W 123°09'0 0.0
2017-Oct-21 05:23N 49°01' W 123°09'0 0.0
2017-Oct-21 04:53N 49°01' W 123°09'0 0.0
2017-Oct-21 04:23N 49°01' W 123°09'0 0.0
2017-Oct-21 03:59N 49°01' W 123°09'0 0.0
2017-Oct-21 03:23N 49°01' W 123°09'0 0.0
2017-Oct-21 02:41N 49°01' W 123°09'0 0.0
2017-Oct-21 02:23N 49°01' W 123°09'0 0.0
2017-Oct-21 01:59N 49°01' W 123°09'0 0.0
2017-Oct-21 01:29N 49°01' W 123°09'0 0.0
2017-Oct-21 00:59N 49°01' W 123°09'0 0.0
2017-Oct-20 23:59N 49°01' W 123°09'0 0.0
2017-Oct-20 23:29N 49°01' W 123°09'0 0.0
2017-Oct-20 22:59N 49°01' W 123°09'0 0.0
2017-Oct-20 22:29N 49°01' W 123°09'0 0.0
2017-Oct-20 21:56N 49°01' W 123°09'0 0.0
2017-Oct-20 21:26N 49°01' W 123°09'0 0.0
2017-Oct-20 20:59N 49°01' W 123°09'0 0.0
2017-Oct-20 20:23N 49°01' W 123°09'0 0.0
2017-Oct-20 19:59N 49°01' W 123°09'0 0.0
2017-Oct-20 19:23N 49°01' W 123°09'0 0.0
2017-Oct-20 18:59N 49°01' W 123°09'0 0.0
2017-Oct-20 18:26N 49°01' W 123°09'0 0.0
2017-Oct-20 17:47N 49°01' W 123°09'0 0.0
2017-Oct-20 17:23N 49°01' W 123°09'0 0.0
2017-Oct-20 16:59N 49°01' W 123°09'0 0.0
2017-Oct-20 16:20N 49°01' W 123°09'0 0.0
2017-Oct-20 15:56N 49°01' W 123°09'0 0.0
2017-Oct-20 15:20N 49°01' W 123°09'0 0.0
2017-Oct-20 14:56N 49°01' W 123°09'0 0.0
2017-Oct-20 14:26N 49°01' W 123°09'0 0.0
2017-Oct-20 13:26N 49°01' W 123°09'0 0.0
2017-Oct-20 12:38N 49°01' W 123°09'0 0.0
2017-Oct-20 12:26N 49°01' W 123°09'0 0.0
2017-Oct-20 11:44N 49°01' W 123°09'0 0.0
2017-Oct-20 11:20N 49°01' W 123°09'0 0.0
2017-Oct-20 10:50N 49°01' W 123°09'0 0.0
2017-Oct-20 10:26N 49°01' W 123°09'0 0.0
2017-Oct-20 09:50N 49°01' W 123°09'0 0.0
2017-Oct-20 08:38N 49°01' W 123°09'0 0.0
2017-Oct-20 06:32N 49°01' W 123°09'0 0.0
2017-Oct-20 06:20N 49°01' W 123°09'0 0.0
2017-Oct-20 05:59N 49°01' W 123°09'1 1.3
2017-Oct-20 05:30N 49°00' W 123°10'3 6.1
2017-Oct-20 05:00N 49°00' W 123°14'611.3
2017-Oct-20 04:30N 49°03' W 123°22'713.7
2017-Oct-20 04:00N 49°10' W 123°23'714.7
2017-Oct-20 03:30N 49°17' W 123°20'713.0
2017-Oct-20 03:00N 49°19' W 123°10'5 9.1
2017-Oct-20 02:30N 49°18' W 123°04'0 0.9
2017-Oct-20 01:58N 49°18' W 123°03'0 0.0
2017-Oct-20 01:28N 49°18' W 123°03'0 0.0
2017-Oct-20 00:58N 49°18' W 123°03'0 0.0
2017-Oct-20 00:28N 49°18' W 123°03'0 0.0
2017-Oct-19 23:58N 49°18' W 123°03'0 0.0
2017-Oct-19 23:28N 49°18' W 123°03'0 0.0
2017-Oct-19 22:58N 49°18' W 123°03'0 0.0
2017-Oct-19 22:28N 49°18' W 123°03'0 0.0
2017-Oct-19 21:58N 49°18' W 123°03'0 0.0
2017-Oct-19 21:28N 49°18' W 123°03'0 0.0
2017-Oct-19 20:58N 49°18' W 123°03'0 0.0
2017-Oct-19 20:28N 49°18' W 123°03'0 0.0
2017-Oct-19 19:58N 49°18' W 123°03'0 0.0
2017-Oct-19 19:28N 49°18' W 123°03'0 0.0
2017-Oct-19 18:55N 49°18' W 123°03'0 0.0
2017-Oct-19 18:28N 49°18' W 123°03'0 0.0
2017-Oct-19 17:58N 49°18' W 123°03'0 0.0
2017-Oct-19 17:28N 49°18' W 123°03'0 0.0
2017-Oct-19 16:55N 49°18' W 123°03'0 0.0
2017-Oct-19 16:28N 49°18' W 123°03'0 0.0
2017-Oct-19 15:58N 49°18' W 123°03'0 0.0
2017-Oct-19 15:28N 49°18' W 123°03'0 0.0
2017-Oct-19 14:58N 49°18' W 123°03'0 0.0
2017-Oct-19 14:28N 49°18' W 123°03'0 0.0
2017-Oct-19 13:58N 49°18' W 123°03'0 0.0
2017-Oct-19 13:28N 49°18' W 123°03'0 0.0
2017-Oct-19 12:58N 49°18' W 123°03'0 0.0
2017-Oct-19 12:28N 49°18' W 123°03'0 0.0
2017-Oct-19 11:58N 49°18' W 123°03'0 0.0
2017-Oct-19 11:28N 49°18' W 123°03'0 0.0
2017-Oct-19 10:58N 49°18' W 123°03'0 0.0
2017-Oct-19 10:28N 49°18' W 123°03'0 0.0
2017-Oct-19 09:58N 49°18' W 123°03'0 0.0
2017-Oct-19 09:28N 49°18' W 123°03'0 0.0
2017-Oct-19 08:58N 49°18' W 123°03'0 0.0
2017-Oct-19 08:25N 49°18' W 123°03'0 0.0
2017-Oct-19 07:58N 49°18' W 123°03'0 0.0
2017-Oct-19 07:25N 49°18' W 123°03'0 0.0
2017-Oct-19 06:58N 49°18' W 123°03'0 0.0
2017-Oct-19 06:28N 49°18' W 123°03'0 0.0
2017-Oct-19 05:58N 49°18' W 123°03'0 0.0
2017-Oct-19 05:28N 49°18' W 123°03'0 0.0
2017-Oct-19 04:58N 49°18' W 123°03'0 0.0
2017-Oct-19 04:28N 49°18' W 123°03'0 0.0
2017-Oct-19 03:58N 49°18' W 123°03'0 0.0
2017-Oct-19 03:28N 49°18' W 123°03'0 0.0
2017-Oct-19 02:58N 49°18' W 123°03'0 0.0
2017-Oct-19 02:28N 49°18' W 123°03'0 0.0
2017-Oct-19 01:58N 49°18' W 123°03'0 0.0
2017-Oct-19 01:28N 49°18' W 123°03'0 0.0
2017-Oct-19 00:58N 49°18' W 123°03'0 0.0
2017-Oct-19 00:28N 49°18' W 123°03'0 0.0
2017-Oct-18 23:58N 49°18' W 123°03'0 0.0
2017-Oct-18 23:28N 49°18' W 123°03'0 0.0
2017-Oct-18 22:58N 49°18' W 123°03'0 0.0
2017-Oct-18 22:28N 49°18' W 123°03'0 0.0
2017-Oct-18 21:55N 49°18' W 123°03'0 0.0
2017-Oct-18 21:28N 49°18' W 123°03'0 0.0
2017-Oct-18 20:58N 49°18' W 123°03'0 0.0
2017-Oct-18 20:28N 49°18' W 123°03'0 0.0
2017-Oct-18 19:58N 49°18' W 123°03'0 0.0
2017-Oct-18 19:28N 49°18' W 123°03'0 0.0
2017-Oct-18 18:58N 49°18' W 123°03'0 0.0
2017-Oct-18 18:25N 49°18' W 123°03'0 0.0
2017-Oct-18 17:58N 49°18' W 123°03'0 0.0
2017-Oct-18 17:28N 49°18' W 123°03'0 0.0
2017-Oct-18 16:58N 49°18' W 123°03'0 0.0
2017-Oct-18 16:28N 49°18' W 123°03'0 0.0
2017-Oct-18 15:58N 49°18' W 123°03'0 0.0
2017-Oct-18 15:28N 49°18' W 123°03'0 0.0
2017-Oct-18 14:58N 49°18' W 123°03'0 0.0
2017-Oct-18 13:58N 49°18' W 123°03'0 0.0
2017-Oct-18 13:28N 49°18' W 123°03'0 0.0
2017-Oct-18 12:58N 49°18' W 123°03'0 0.0
2017-Oct-18 12:28N 49°18' W 123°03'0 0.0
2017-Oct-18 11:58N 49°18' W 123°03'0 0.0
2017-Oct-18 11:28N 49°18' W 123°03'0 0.0
2017-Oct-18 10:58N 49°18' W 123°03'0 0.0
2017-Oct-18 10:28N 49°18' W 123°03'0 0.0
2017-Oct-18 09:58N 49°18' W 123°03'0 0.0
2017-Oct-18 09:28N 49°18' W 123°03'0 0.0
2017-Oct-18 08:58N 49°18' W 123°03'0 0.0
2017-Oct-18 08:28N 49°18' W 123°03'0 0.0
2017-Oct-18 07:58N 49°18' W 123°03'0 0.0
2017-Oct-18 07:28N 49°18' W 123°03'0 0.0
2017-Oct-18 06:58N 49°18' W 123°03'0 0.0
2017-Oct-18 06:28N 49°18' W 123°03'0 0.0
2017-Oct-18 05:58N 49°18' W 123°03'0 0.0
2017-Oct-18 05:28N 49°18' W 123°03'0 0.0
2017-Oct-18 04:58N 49°18' W 123°03'0 0.0
2017-Oct-18 04:28N 49°18' W 123°03'0 0.0
2017-Oct-18 03:58N 49°18' W 123°03'0 0.0
2017-Oct-18 03:28N 49°18' W 123°03'0 0.0
2017-Oct-18 02:58N 49°18' W 123°03'0 0.0
2017-Oct-18 02:28N 49°18' W 123°03'0 0.0
2017-Oct-18 01:58N 49°18' W 123°03'0 0.0
2017-Oct-18 01:28N 49°18' W 123°03'0 0.0
2017-Oct-18 00:58N 49°18' W 123°03'0 0.0
2017-Oct-18 00:28N 49°18' W 123°03'0 0.0
2017-Oct-17 23:58N 49°18' W 123°03'0 0.0
2017-Oct-17 23:28N 49°18' W 123°03'0 0.0
2017-Oct-17 22:58N 49°18' W 123°03'0 0.0
2017-Oct-17 22:28N 49°18' W 123°03'0 0.0
2017-Oct-17 21:58N 49°18' W 123°03'0 0.0
2017-Oct-17 21:30N 49°18' W 123°03'1 1.6
2017-Oct-17 21:00N 49°18' W 123°05'4 7.9
2017-Oct-17 20:30N 49°19' W 123°10'611.7
2017-Oct-17 20:00N 49°16' W 123°18'714.7
2017-Oct-17 19:30N 49°09' W 123°20'713.6
2017-Oct-17 19:00N 49°03' W 123°17'714.3
2017-Oct-17 18:30N 48°58' W 123°09'714.0
2017-Oct-17 18:00N 48°52' W 123°02'612.2
2017-Oct-17 17:30N 48°46' W 123°02'713.7
2017-Oct-17 17:01N 48°43' W 123°11'611.6
2017-Oct-17 16:30N 48°37' W 123°14'713.2
2017-Oct-17 16:00N 48°31' W 123°11'612.5
2017-Oct-17 15:30N 48°25' W 123°11'713.0
2017-Oct-17 15:00N 48°22' W 123°20'4 8.6
2017-Oct-17 14:30N 48°19' W 123°25'4 8.6
2017-Oct-17 14:00N 48°15' W 123°27'510.8
2017-Oct-17 13:30N 48°13' W 123°35'511.0
2017-Oct-17 13:00N 48°13' W 123°43'4 8.3
2017-Oct-17 12:29N 48°13' W 123°49'612.1
2017-Oct-17 12:00N 48°14' W 123°58'612.7
2017-Oct-17 11:30N 48°17' W 124°07'713.3
2017-Oct-17 10:58N 48°20' W 124°17'613.0
2017-Oct-17 10:30N 48°22' W 124°25'712.9
2017-Oct-17 10:00N 48°25' W 124°34'612.6
2017-Oct-17 09:30N 48°28' W 124°42'814.4
2017-Oct-17 08:58N 48°28' W 124°54'714.2
2017-Oct-17 08:29N 48°29' W 125°04'713.8
2017-Oct-17 07:58N 48°29' W 125°15'613.7
2017-Oct-17 07:30N 48°29' W 125°25'714.0
2017-Oct-17 07:00N 48°29' W 125°35'713.8
2017-Oct-17 06:30N 48°29' W 125°45'713.8
2017-Oct-17 06:00N 48°29' W 125°56'713.7
2017-Oct-17 05:30N 48°29' W 126°06'713.4
2017-Oct-17 05:00N 48°29' W 126°16'  
Track history (hours):
 
Tides and Currents Weather Stations Pressure Air Temp Water Temp Dewpoint Dewpoint Depression Visibility Wind Speed Wind Dir Waves Ship Positions

Pan Freesia

Last reported at 2017-Oct-23 16:28 UTC. Time now 2017-Nov-19 14:27 UTC.
Position N 48°31' W 126°14'.
Warning: this ship's position is 26 days out of date.

Length 292 m; draft 17.9 m.

Type: Cargo ship. MMSI: 538003616.

Date/timePositionNaut miles runAvg speedWind from/ knotsBaromVisibWave heightAir tempDewpointWater temp
2017-Oct-23 16:28N 48°31' W 126°14'5 9.8
2017-Oct-23 15:59N 48°31' W 126°07'4 9.1
2017-Oct-23 15:29N 48°31' W 126°00'4 8.9
2017-Oct-23 15:00N 48°31' W 125°54'6 8.7
2017-Oct-23 14:17N 48°30' W 125°44'3 8.6
2017-Oct-23 14:00N 48°30' W 125°41'5 8.8
2017-Oct-23 13:26N 48°30' W 125°33'4 8.8
2017-Oct-23 12:56N 48°30' W 125°26'5 8.5
2017-Oct-23 12:22N 48°31' W 125°19'3 8.1
2017-Oct-23 11:59N 48°31' W 125°14'5 8.0
2017-Oct-23 11:19N 48°30' W 125°06'4 7.4
2017-Oct-23 10:47N 48°30' W 125°00'2 7.6
2017-Oct-23 10:30N 48°31' W 124°57'4 7.9
2017-Oct-23 10:00N 48°30' W 124°51'4 8.2
2017-Oct-23 09:30N 48°30' W 124°45'4 7.9
2017-Oct-23 09:00N 48°29' W 124°39'5 9.3
2017-Oct-23 08:30N 48°28' W 124°33'510.7
2017-Oct-23 08:00N 48°25' W 124°25'611.9
2017-Oct-23 07:30N 48°23' W 124°17'612.2
2017-Oct-23 06:59N 48°21' W 124°09'813.1
2017-Oct-23 06:24N 48°18' W 123°58'613.3
2017-Oct-23 05:59N 48°17' W 123°50'713.3
2017-Oct-23 05:30N 48°16' W 123°40'612.3
2017-Oct-23 04:58N 48°16' W 123°30'612.4
2017-Oct-23 04:30N 48°21' W 123°26'510.1
2017-Oct-23 04:00N 48°23' W 123°19'612.0
2017-Oct-23 03:30N 48°27' W 123°13'714.5
2017-Oct-23 03:00N 48°35' W 123°14'713.5
2017-Oct-23 02:30N 48°41' W 123°15'713.2
2017-Oct-23 02:00N 48°45' W 123°07'611.0
2017-Oct-23 01:30N 48°49' W 123°01'613.1
2017-Oct-23 01:00N 48°55' W 123°05'611.5
2017-Oct-23 00:30N 49°00' W 123°09'1 0.9
2017-Oct-22 23:32N 49°01' W 123°09'0 0.0
2017-Oct-22 23:26N 49°01' W 123°09'0 0.0
2017-Oct-22 22:38N 49°01' W 123°09'0 0.0
2017-Oct-22 22:14N 49°01' W 123°09'0 0.0
2017-Oct-22 20:26N 49°01' W 123°09'0 0.0
2017-Oct-22 19:44N 49°01' W 123°09'0 0.0
2017-Oct-22 19:20N 49°01' W 123°09'0 0.0
2017-Oct-22 18:56N 49°01' W 123°09'0 0.0
2017-Oct-22 18:20N 49°01' W 123°09'0 0.0
2017-Oct-22 17:26N 49°01' W 123°09'0 0.0
2017-Oct-22 16:44N 49°01' W 123°09'0 0.0
2017-Oct-22 16:26N 49°01' W 123°09'0 0.0
2017-Oct-22 15:56N 49°01' W 123°09'0 0.0
2017-Oct-22 15:26N 49°01' W 123°09'0 0.0
2017-Oct-22 14:50N 49°01' W 123°09'0 0.0
2017-Oct-22 14:23N 49°01' W 123°09'0 0.0
2017-Oct-22 13:56N 49°01' W 123°09'0 0.0
2017-Oct-22 13:26N 49°01' W 123°09'0 0.0
2017-Oct-22 12:50N 49°01' W 123°09'0 0.0
2017-Oct-22 12:26N 49°01' W 123°09'0 0.0
2017-Oct-22 11:56N 49°01' W 123°09'0 0.0
2017-Oct-22 10:50N 49°01' W 123°09'0 0.0
2017-Oct-22 10:26N 49°01' W 123°09'0 0.0
2017-Oct-22 09:59N 49°01' W 123°09'0 0.0
2017-Oct-22 09:20N 49°01' W 123°09'0 0.0
2017-Oct-22 08:44N 49°01' W 123°09'0 0.0
2017-Oct-22 08:26N 49°01' W 123°09'0 0.0
2017-Oct-22 07:50N 49°01' W 123°09'0 0.0
2017-Oct-22 07:26N 49°01' W 123°09'0 0.0
2017-Oct-22 06:56N 49°01' W 123°09'0 0.0
2017-Oct-22 06:26N 49°01' W 123°09'0 0.0
2017-Oct-22 05:32N 49°01' W 123°09'0 0.0
2017-Oct-22 05:26N 49°01' W 123°09'0 0.0
2017-Oct-22 04:50N 49°01' W 123°09'0 0.0
2017-Oct-22 04:08N 49°01' W 123°09'0 0.0
2017-Oct-22 03:59N 49°01' W 123°09'0 0.0
2017-Oct-22 02:50N 49°01' W 123°09'0 0.0
2017-Oct-22 01:38N 49°01' W 123°09'0 0.0
2017-Oct-22 01:29N 49°01' W 123°09'0 0.0
2017-Oct-22 00:56N 49°01' W 123°09'0 0.0
2017-Oct-22 00:20N 49°01' W 123°09'0 0.0
2017-Oct-21 23:41N 49°01' W 123°09'0 0.0
2017-Oct-21 23:26N 49°01' W 123°09'0 0.0
2017-Oct-21 22:56N 49°01' W 123°09'0 0.0
2017-Oct-21 22:29N 49°01' W 123°09'0 0.0
2017-Oct-21 21:50N 49°01' W 123°09'0 0.0
2017-Oct-21 21:17N 49°01' W 123°09'0 0.0
2017-Oct-21 20:59N 49°01' W 123°09'0 0.0
2017-Oct-21 20:11N 49°01' W 123°09'0 0.0
2017-Oct-21 19:53N 49°01' W 123°09'0 0.0
2017-Oct-21 19:26N 49°01' W 123°09'0 0.0
2017-Oct-21 18:59N 49°01' W 123°09'0 0.0
2017-Oct-21 18:29N 49°01' W 123°09'0 0.0
2017-Oct-21 17:56N 49°01' W 123°09'0 0.0
2017-Oct-21 17:29N 49°01' W 123°09'0 0.0
2017-Oct-21 16:59N 49°01' W 123°09'0 0.0
2017-Oct-21 16:26N 49°01' W 123°09'0 0.0
2017-Oct-21 15:59N 49°01' W 123°09'0 0.0
2017-Oct-21 15:02N 49°01' W 123°09'0 0.0
2017-Oct-21 14:53N 49°01' W 123°09'0 0.0
2017-Oct-21 14:29N 49°01' W 123°09'0 0.0
2017-Oct-21 13:29N 49°01' W 123°09'0 0.0
2017-Oct-21 12:56N 49°01' W 123°09'0 0.0
2017-Oct-21 12:26N 49°01' W 123°09'0 0.0
2017-Oct-21 11:59N 49°01' W 123°09'0 0.0
2017-Oct-21 11:29N 49°01' W 123°09'0 0.0
2017-Oct-21 10:53N 49°01' W 123°09'0 0.0
2017-Oct-21 10:29N 49°01' W 123°09'0 0.0
2017-Oct-21 09:59N 49°01' W 123°09'0 0.0
2017-Oct-21 08:41N 49°01' W 123°09'0 0.0
2017-Oct-21 08:20N 49°01' W 123°09'0 0.0
2017-Oct-21 07:53N 49°01' W 123°09'0 0.0
2017-Oct-21 07:23N 49°01' W 123°09'0 0.0
2017-Oct-21 06:47N 49°01' W 123°09'0 0.0
2017-Oct-21 06:29N 49°01' W 123°09'0 0.0
2017-Oct-21 05:59N 49°01' W 123°09'0 0.0
2017-Oct-21 05:23N 49°01' W 123°09'0 0.0
2017-Oct-21 04:53N 49°01' W 123°09'0 0.0
2017-Oct-21 04:23N 49°01' W 123°09'0 0.0
2017-Oct-21 03:59N 49°01' W 123°09'0 0.0
2017-Oct-21 03:23N 49°01' W 123°09'0 0.0
2017-Oct-21 02:41N 49°01' W 123°09'0 0.0
2017-Oct-21 02:23N 49°01' W 123°09'0 0.0
2017-Oct-21 01:59N 49°01' W 123°09'0 0.0
2017-Oct-21 01:29N 49°01' W 123°09'0 0.0
2017-Oct-21 00:59N 49°01' W 123°09'0 0.0
2017-Oct-20 23:59N 49°01' W 123°09'0 0.0
2017-Oct-20 23:29N 49°01' W 123°09'0 0.0
2017-Oct-20 22:59N 49°01' W 123°09'0 0.0
2017-Oct-20 22:29N 49°01' W 123°09'0 0.0
2017-Oct-20 21:56N 49°01' W 123°09'0 0.0
2017-Oct-20 21:26N 49°01' W 123°09'0 0.0
2017-Oct-20 20:59N 49°01' W 123°09'0 0.0
2017-Oct-20 20:23N 49°01' W 123°09'0 0.0
2017-Oct-20 19:59N 49°01' W 123°09'0 0.0
2017-Oct-20 19:23N 49°01' W 123°09'0 0.0
2017-Oct-20 18:59N 49°01' W 123°09'0 0.0
2017-Oct-20 18:26N 49°01' W 123°09'0 0.0
2017-Oct-20 17:47N 49°01' W 123°09'0 0.0
2017-Oct-20 17:23N 49°01' W 123°09'0 0.0
2017-Oct-20 16:59N 49°01' W 123°09'0 0.0
2017-Oct-20 16:20N 49°01' W 123°09'0 0.0
2017-Oct-20 15:56N 49°01' W 123°09'0 0.0
2017-Oct-20 15:20N 49°01' W 123°09'0 0.0
2017-Oct-20 14:56N 49°01' W 123°09'0 0.0
2017-Oct-20 14:26N 49°01' W 123°09'0 0.0
2017-Oct-20 13:26N 49°01' W 123°09'0 0.0
2017-Oct-20 12:38N 49°01' W 123°09'0 0.0
2017-Oct-20 12:26N 49°01' W 123°09'0 0.0
2017-Oct-20 11:44N 49°01' W 123°09'0 0.0
2017-Oct-20 11:20N 49°01' W 123°09'0 0.0
2017-Oct-20 10:50N 49°01' W 123°09'0 0.0
2017-Oct-20 10:26N 49°01' W 123°09'0 0.0
2017-Oct-20 09:50N 49°01' W 123°09'0 0.0
2017-Oct-20 08:38N 49°01' W 123°09'0 0.0
2017-Oct-20 06:32N 49°01' W 123°09'0 0.0
2017-Oct-20 06:20N 49°01' W 123°09'0 0.0
2017-Oct-20 05:59N 49°01' W 123°09'1 1.3
2017-Oct-20 05:30N 49°00' W 123°10'3 6.1
2017-Oct-20 05:00N 49°00' W 123°14'611.3
2017-Oct-20 04:30N 49°03' W 123°22'713.7
2017-Oct-20 04:00N 49°10' W 123°23'714.7
2017-Oct-20 03:30N 49°17' W 123°20'713.0
2017-Oct-20 03:00N 49°19' W 123°10'5 9.1
2017-Oct-20 02:30N 49°18' W 123°04'0 0.9
2017-Oct-20 01:58N 49°18' W 123°03'0 0.0
2017-Oct-20 01:28N 49°18' W 123°03'0 0.0
2017-Oct-20 00:58N 49°18' W 123°03'0 0.0
2017-Oct-20 00:28N 49°18' W 123°03'0 0.0
2017-Oct-19 23:58N 49°18' W 123°03'0 0.0
2017-Oct-19 23:28N 49°18' W 123°03'0 0.0
2017-Oct-19 22:58N 49°18' W 123°03'0 0.0
2017-Oct-19 22:28N 49°18' W 123°03'0 0.0
2017-Oct-19 21:58N 49°18' W 123°03'0 0.0
2017-Oct-19 21:28N 49°18' W 123°03'0 0.0
2017-Oct-19 20:58N 49°18' W 123°03'0 0.0
2017-Oct-19 20:28N 49°18' W 123°03'0 0.0
2017-Oct-19 19:58N 49°18' W 123°03'0 0.0
2017-Oct-19 19:28N 49°18' W 123°03'0 0.0
2017-Oct-19 18:55N 49°18' W 123°03'0 0.0
2017-Oct-19 18:28N 49°18' W 123°03'0 0.0
2017-Oct-19 17:58N 49°18' W 123°03'0 0.0
2017-Oct-19 17:28N 49°18' W 123°03'0 0.0
2017-Oct-19 16:55N 49°18' W 123°03'0 0.0
2017-Oct-19 16:28N 49°18' W 123°03'0 0.0
2017-Oct-19 15:58N 49°18' W 123°03'0 0.0
2017-Oct-19 15:28N 49°18' W 123°03'0 0.0
2017-Oct-19 14:58N 49°18' W 123°03'0 0.0
2017-Oct-19 14:28N 49°18' W 123°03'0 0.0
2017-Oct-19 13:58N 49°18' W 123°03'0 0.0
2017-Oct-19 13:28N 49°18' W 123°03'0 0.0
2017-Oct-19 12:58N 49°18' W 123°03'0 0.0
2017-Oct-19 12:28N 49°18' W 123°03'0 0.0
2017-Oct-19 11:58N 49°18' W 123°03'0 0.0
2017-Oct-19 11:28N 49°18' W 123°03'0 0.0
2017-Oct-19 10:58N 49°18' W 123°03'0 0.0
2017-Oct-19 10:28N 49°18' W 123°03'0 0.0
2017-Oct-19 09:58N 49°18' W 123°03'0 0.0
2017-Oct-19 09:28N 49°18' W 123°03'0 0.0
2017-Oct-19 08:58N 49°18' W 123°03'0 0.0
2017-Oct-19 08:25N 49°18' W 123°03'0 0.0
2017-Oct-19 07:58N 49°18' W 123°03'0 0.0
2017-Oct-19 07:25N 49°18' W 123°03'0 0.0
2017-Oct-19 06:58N 49°18' W 123°03'0 0.0
2017-Oct-19 06:28N 49°18' W 123°03'0 0.0
2017-Oct-19 05:58N 49°18' W 123°03'0 0.0
2017-Oct-19 05:28N 49°18' W 123°03'0 0.0
2017-Oct-19 04:58N 49°18' W 123°03'0 0.0
2017-Oct-19 04:28N 49°18' W 123°03'0 0.0
2017-Oct-19 03:58N 49°18' W 123°03'0 0.0
2017-Oct-19 03:28N 49°18' W 123°03'0 0.0
2017-Oct-19 02:58N 49°18' W 123°03'0 0.0
2017-Oct-19 02:28N 49°18' W 123°03'0 0.0
2017-Oct-19 01:58N 49°18' W 123°03'0 0.0
2017-Oct-19 01:28N 49°18' W 123°03'0 0.0
2017-Oct-19 00:58N 49°18' W 123°03'0 0.0
2017-Oct-19 00:28N 49°18' W 123°03'0 0.0
2017-Oct-18 23:58N 49°18' W 123°03'0 0.0
2017-Oct-18 23:28N 49°18' W 123°03'0 0.0
2017-Oct-18 22:58N 49°18' W 123°03'0 0.0
2017-Oct-18 22:28N 49°18' W 123°03'0 0.0
2017-Oct-18 21:55N 49°18' W 123°03'0 0.0
2017-Oct-18 21:28N 49°18' W 123°03'0 0.0
2017-Oct-18 20:58N 49°18' W 123°03'0 0.0
2017-Oct-18 20:28N 49°18' W 123°03'0 0.0
2017-Oct-18 19:58N 49°18' W 123°03'0 0.0
2017-Oct-18 19:28N 49°18' W 123°03'0 0.0
2017-Oct-18 18:58N 49°18' W 123°03'0 0.0
2017-Oct-18 18:25N 49°18' W 123°03'0 0.0
2017-Oct-18 17:58N 49°18' W 123°03'0 0.0
2017-Oct-18 17:28N 49°18' W 123°03'0 0.0
2017-Oct-18 16:58N 49°18' W 123°03'0 0.0
2017-Oct-18 16:28N 49°18' W 123°03'0 0.0
2017-Oct-18 15:58N 49°18' W 123°03'0 0.0
2017-Oct-18 15:28N 49°18' W 123°03'0 0.0
2017-Oct-18 14:58N 49°18' W 123°03'0 0.0
2017-Oct-18 13:58N 49°18' W 123°03'0 0.0
2017-Oct-18 13:28N 49°18' W 123°03'0 0.0
2017-Oct-18 12:58N 49°18' W 123°03'0 0.0
2017-Oct-18 12:28N 49°18' W 123°03'0 0.0
2017-Oct-18 11:58N 49°18' W 123°03'0 0.0
2017-Oct-18 11:28N 49°18' W 123°03'0 0.0
2017-Oct-18 10:58N 49°18' W 123°03'0 0.0
2017-Oct-18 10:28N 49°18' W 123°03'0 0.0
2017-Oct-18 09:58N 49°18' W 123°03'0 0.0
2017-Oct-18 09:28N 49°18' W 123°03'0 0.0
2017-Oct-18 08:58N 49°18' W 123°03'0 0.0
2017-Oct-18 08:28N 49°18' W 123°03'0 0.0
2017-Oct-18 07:58N 49°18' W 123°03'0 0.0
2017-Oct-18 07:28N 49°18' W 123°03'0 0.0
2017-Oct-18 06:58N 49°18' W 123°03'0 0.0
2017-Oct-18 06:28N 49°18' W 123°03'0 0.0
2017-Oct-18 05:58N 49°18' W 123°03'0 0.0
2017-Oct-18 05:28N 49°18' W 123°03'0 0.0
2017-Oct-18 04:58N 49°18' W 123°03'0 0.0
2017-Oct-18 04:28N 49°18' W 123°03'0 0.0
2017-Oct-18 03:58N 49°18' W 123°03'0 0.0
2017-Oct-18 03:28N 49°18' W 123°03'0 0.0
2017-Oct-18 02:58N 49°18' W 123°03'0 0.0
2017-Oct-18 02:28N 49°18' W 123°03'0 0.0
2017-Oct-18 01:58N 49°18' W 123°03'0 0.0
2017-Oct-18 01:28N 49°18' W 123°03'0 0.0
2017-Oct-18 00:58N 49°18' W 123°03'0 0.0
2017-Oct-18 00:28N 49°18' W 123°03'0 0.0
2017-Oct-17 23:58N 49°18' W 123°03'0 0.0
2017-Oct-17 23:28N 49°18' W 123°03'0 0.0
2017-Oct-17 22:58N 49°18' W 123°03'0 0.0
2017-Oct-17 22:28N 49°18' W 123°03'0 0.0
2017-Oct-17 21:58N 49°18' W 123°03'0 0.0
2017-Oct-17 21:30N 49°18' W 123°03'1 1.6
2017-Oct-17 21:00N 49°18' W 123°05'4 7.9
2017-Oct-17 20:30N 49°19' W 123°10'611.7
2017-Oct-17 20:00N 49°16' W 123°18'714.7
2017-Oct-17 19:30N 49°09' W 123°20'713.6
2017-Oct-17 19:00N 49°03' W 123°17'714.3
2017-Oct-17 18:30N 48°58' W 123°09'714.0
2017-Oct-17 18:00N 48°52' W 123°02'612.2
2017-Oct-17 17:30N 48°46' W 123°02'713.7
2017-Oct-17 17:01N 48°43' W 123°11'611.6
2017-Oct-17 16:30N 48°37' W 123°14'713.2
2017-Oct-17 16:00N 48°31' W 123°11'612.5
2017-Oct-17 15:30N 48°25' W 123°11'713.0
2017-Oct-17 15:00N 48°22' W 123°20'4 8.6
2017-Oct-17 14:30N 48°19' W 123°25'4 8.6
2017-Oct-17 14:00N 48°15' W 123°27'510.8
2017-Oct-17 13:30N 48°13' W 123°35'511.0
2017-Oct-17 13:00N 48°13' W 123°43'4 8.3
2017-Oct-17 12:29N 48°13' W 123°49'612.1
2017-Oct-17 12:00N 48°14' W 123°58'612.7
2017-Oct-17 11:30N 48°17' W 124°07'713.3
2017-Oct-17 10:58N 48°20' W 124°17'613.0
2017-Oct-17 10:30N 48°22' W 124°25'712.9
2017-Oct-17 10:00N 48°25' W 124°34'612.6
2017-Oct-17 09:30N 48°28' W 124°42'814.4
2017-Oct-17 08:58N 48°28' W 124°54'714.2
2017-Oct-17 08:29N 48°29' W 125°04'713.8
2017-Oct-17 07:58N 48°29' W 125°15'613.7
2017-Oct-17 07:30N 48°29' W 125°25'714.0
2017-Oct-17 07:00N 48°29' W 125°35'713.8
2017-Oct-17 06:30N 48°29' W 125°45'713.8
2017-Oct-17 06:00N 48°29' W 125°56'713.7
2017-Oct-17 05:30N 48°29' W 126°06'713.4
2017-Oct-17 05:00N 48°29' W 126°16'  

Dump ship's entire track history